createdAt,value
2019-05-01T00:01:15.629Z,21.47
2019-05-01T00:04:03.892Z,22.30
2019-05-01T00:06:38.473Z,21.40
2019-05-01T00:09:12.143Z,21.53
2019-05-01T00:11:42.484Z,22.20
2019-05-01T00:14:12.821Z,21.67
2019-05-01T00:16:43.270Z,22.00
2019-05-01T00:19:13.690Z,21.67
2019-05-01T00:21:44.021Z,21.77
2019-05-01T00:24:14.346Z,21.47
2019-05-01T00:26:44.813Z,21.97
2019-05-01T00:29:15.153Z,22.63
2019-05-01T00:31:45.593Z,22.10
2019-05-01T00:34:15.972Z,22.60
2019-05-01T00:36:46.481Z,21.10
2019-05-01T00:39:18.350Z,22.40
2019-05-01T00:41:48.834Z,21.37
2019-05-01T00:44:19.206Z,22.93
2019-05-01T00:46:49.551Z,21.37
2019-05-01T00:49:19.889Z,22.10
2019-05-01T00:51:50.234Z,23.80
2019-05-01T00:54:20.615Z,21.97
2019-05-01T00:57:03.221Z,21.87
2019-05-01T00:59:55.574Z,22.03
2019-05-01T01:02:38.973Z,22.30
2019-05-01T01:05:11.022Z,22.10
2019-05-01T01:07:41.361Z,22.77
2019-05-01T01:10:11.773Z,23.03
2019-05-01T01:12:42.104Z,25.57
2019-05-01T01:15:12.410Z,24.13
2019-05-01T01:17:42.738Z,25.00
2019-05-01T01:20:13.053Z,22.93
2019-05-01T01:22:43.362Z,23.73
2019-05-01T01:25:13.641Z,24.73
2019-05-01T01:27:43.973Z,23.80
2019-05-01T01:30:14.388Z,24.30
2019-05-01T01:32:44.789Z,23.27
2019-05-01T01:35:15.153Z,24.43
2019-05-01T01:37:45.473Z,23.40
2019-05-01T01:40:16.080Z,24.23
2019-05-01T01:42:48.263Z,25.10
2019-05-01T01:45:31.482Z,24.87
2019-05-01T01:48:16.020Z,25.57
2019-05-01T01:50:47.143Z,25.07
2019-05-01T01:53:20.533Z,25.13
2019-05-01T01:55:51.766Z,26.00
2019-05-01T01:58:23.246Z,25.63
2019-05-01T02:01:12.701Z,25.60
2019-05-01T02:03:46.314Z,25.00
2019-05-01T02:06:16.621Z,26.10
2019-05-01T02:08:56.321Z,25.23
2019-05-01T02:11:19.598Z,25.10
2019-05-01T02:13:50.329Z,25.03
2019-05-01T02:16:20.650Z,24.47
2019-05-01T02:18:50.965Z,24.43
2019-05-01T02:21:21.277Z,24.93
2019-05-01T02:23:51.600Z,26.67
2019-05-01T02:26:23.595Z,25.67
2019-05-01T02:29:01.043Z,26.73
2019-05-01T02:31:42.080Z,25.33
2019-05-01T02:34:12.697Z,26.83
2019-05-01T02:36:44.842Z,27.83
2019-05-01T02:39:17.273Z,27.00
2019-05-01T02:41:49.383Z,26.70
2019-05-01T02:44:25.279Z,26.57
2019-05-01T02:46:58.519Z,28.77
2019-05-01T02:49:35.521Z,28.43
2019-05-01T02:52:08.142Z,27.57
2019-05-01T02:54:40.624Z,26.57
2019-05-01T02:57:13.554Z,27.63
2019-05-01T02:59:47.135Z,26.17
2019-05-01T03:02:19.033Z,28.10
2019-05-01T03:04:49.975Z,26.67
2019-05-01T03:07:21.621Z,26.93
2019-05-01T03:09:52.734Z,26.83
2019-05-01T03:12:26.165Z,26.00
2019-05-01T03:14:59.577Z,27.60
2019-05-01T03:17:52.625Z,26.47
2019-05-01T03:20:31.061Z,26.23
2019-05-01T03:23:30.991Z,25.93
2019-05-01T03:26:02.014Z,26.00
2019-05-01T03:28:32.831Z,26.33
2019-05-01T03:31:03.305Z,26.53
2019-05-01T03:33:34.516Z,26.67
2019-05-01T03:36:05.525Z,28.60
2019-05-01T03:38:36.114Z,29.13
2019-05-01T03:41:08.665Z,29.90
2019-05-01T03:43:40.023Z,28.50
2019-05-01T03:46:11.116Z,30.00
2019-05-01T03:48:42.621Z,29.27
2019-05-01T03:51:13.252Z,27.33
2019-05-01T03:53:43.950Z,27.40
2019-05-01T03:56:14.849Z,28.37
2019-05-01T03:58:45.413Z,28.07
2019-05-01T04:01:35.078Z,28.37
2019-05-01T04:04:09.297Z,27.97
2019-05-01T04:06:39.904Z,27.67
2019-05-01T04:09:10.253Z,28.87
2019-05-01T04:11:40.810Z,29.07
2019-05-01T04:14:11.594Z,27.20
2019-05-01T04:16:43.925Z,26.60
2019-05-01T04:19:14.646Z,27.87
2019-05-01T04:21:53.374Z,28.07
2019-05-01T04:24:23.719Z,28.03
2019-05-01T04:26:54.240Z,28.37
2019-05-01T04:29:36.550Z,28.07
2019-05-01T04:32:15.432Z,26.93
2019-05-01T04:35:07.717Z,28.77
2019-05-01T04:37:38.562Z,28.00
2019-05-01T04:40:08.865Z,26.67
2019-05-01T04:42:39.764Z,27.53
2019-05-01T04:45:10.275Z,27.50
2019-05-01T04:47:40.825Z,27.63
2019-05-01T04:50:11.351Z,25.80
2019-05-01T04:52:41.858Z,25.27
2019-05-01T04:55:12.655Z,25.07
2019-05-01T04:57:43.296Z,25.17
2019-05-01T05:00:13.805Z,26.50
2019-05-01T05:03:04.044Z,25.53
2019-05-01T05:05:26.219Z,25.57
2019-05-01T05:07:56.721Z,25.80
2019-05-01T05:10:27.425Z,26.77
2019-05-01T05:13:06.177Z,25.87
2019-05-01T05:15:54.810Z,24.13
2019-05-01T05:18:25.577Z,25.80
2019-05-01T05:20:56.181Z,25.43
2019-05-01T05:23:27.230Z,25.83
2019-05-01T05:25:57.545Z,26.83
2019-05-01T05:28:31.320Z,26.53
2019-05-01T05:31:02.465Z,26.13
2019-05-01T05:33:35.771Z,26.00
2019-05-01T05:36:07.959Z,26.77
2019-05-01T05:39:06.490Z,25.67
2019-05-01T05:41:38.655Z,25.63
2019-05-01T05:44:09.045Z,26.20
2019-05-01T05:46:39.401Z,24.27
2019-05-01T05:49:09.962Z,25.30
2019-05-01T05:52:00.185Z,26.23
2019-05-01T05:55:06.181Z,25.83
2019-05-01T05:57:43.897Z,26.13
2019-05-01T06:00:25.096Z,26.33
2019-05-01T06:03:07.806Z,25.03
2019-05-01T06:06:00.315Z,25.27
2019-05-01T06:08:33.198Z,25.43
2019-05-01T06:11:33.928Z,25.67
2019-05-01T06:14:21.649Z,26.30
2019-05-01T06:17:14.065Z,27.90
2019-05-01T06:19:52.234Z,25.97
2019-05-01T06:22:40.808Z,23.67
2019-05-01T06:25:22.635Z,24.10
2019-05-01T06:27:50.642Z,25.40
2019-05-01T06:30:21.037Z,25.50
2019-05-01T06:32:51.349Z,27.10
2019-05-01T06:35:21.912Z,25.60
2019-05-01T06:38:04.917Z,25.60
2019-05-01T06:40:44.866Z,24.97
2019-05-01T06:43:35.005Z,25.63
2019-05-01T06:46:27.198Z,24.77
2019-05-01T06:49:03.270Z,25.33
2019-05-01T06:51:53.185Z,25.63
2019-05-01T06:54:21.216Z,27.13
2019-05-01T06:56:51.936Z,25.87
2019-05-01T06:59:26.180Z,25.03
2019-05-01T07:01:58.441Z,25.30
2019-05-01T07:04:32.287Z,24.67
2019-05-01T07:07:06.729Z,24.23
2019-05-01T07:09:37.309Z,26.70
2019-05-01T07:12:12.867Z,26.63
2019-05-01T07:14:47.082Z,27.83
2019-05-01T07:17:15.793Z,26.93
2019-05-01T07:20:04.366Z,27.90
2019-05-01T07:22:37.135Z,27.30
2019-05-01T07:25:07.684Z,25.00
2019-05-01T07:27:40.139Z,25.97
2019-05-01T07:30:19.594Z,25.50
2019-05-01T07:32:50.189Z,27.37
2019-05-01T07:35:20.745Z,26.10
2019-05-01T07:37:51.157Z,25.70
2019-05-01T07:40:28.968Z,25.90
2019-05-01T07:42:59.884Z,27.33
2019-05-01T07:46:02.344Z,26.00
2019-05-01T07:48:41.458Z,25.87
2019-05-01T07:51:09.117Z,25.43
2019-05-01T07:53:40.314Z,26.27
2019-05-01T07:56:10.954Z,25.77
2019-05-01T07:58:41.476Z,25.40
2019-05-01T08:01:21.001Z,25.27
2019-05-01T08:03:51.322Z,25.50
2019-05-01T08:07:41.054Z,24.23
2019-05-01T08:10:11.662Z,26.27
2019-05-01T08:12:44.885Z,26.37
2019-05-01T08:15:14.042Z,23.97
2019-05-01T08:17:48.741Z,25.40
2019-05-01T08:20:24.798Z,24.37
2019-05-01T08:22:55.124Z,26.83
2019-05-01T08:25:28.775Z,27.47
2019-05-01T08:28:21.480Z,27.77
2019-05-01T08:31:27.297Z,28.03
2019-05-01T08:34:02.849Z,27.43
2019-05-01T08:36:33.319Z,28.07
2019-05-01T08:39:09.102Z,28.17
2019-05-01T08:41:38.053Z,27.53
2019-05-01T08:44:08.944Z,27.67
2019-05-01T08:46:50.963Z,27.00
2019-05-01T08:49:52.092Z,28.17
2019-05-01T08:52:22.594Z,27.63
2019-05-01T08:54:54.876Z,27.70
2019-05-01T08:57:29.204Z,27.80
2019-05-01T09:00:00.430Z,26.33
2019-05-01T09:02:29.559Z,26.10
2019-05-01T09:05:02.552Z,26.17
2019-05-01T09:07:32.056Z,27.83
2019-05-01T09:10:02.510Z,23.97
2019-05-01T09:12:32.852Z,27.30
2019-05-01T09:15:07.275Z,25.60
2019-05-01T09:17:35.573Z,26.27
2019-05-01T09:20:07.169Z,25.70
2019-05-01T09:22:38.025Z,25.40
2019-05-01T09:25:10.519Z,25.50
2019-05-01T09:27:59.517Z,25.70
2019-05-01T09:30:38.031Z,26.30
2019-05-01T09:33:08.354Z,26.57
2019-05-01T09:35:40.352Z,25.27
2019-05-01T09:38:10.976Z,23.70
2019-05-01T09:40:41.830Z,25.73
2019-05-01T09:43:12.149Z,24.43
2019-05-01T09:45:42.545Z,24.97
2019-05-01T09:48:12.893Z,24.40
2019-05-01T09:50:48.212Z,23.80
2019-05-01T09:53:29.734Z,24.67
2019-05-01T09:56:07.331Z,24.10
2019-05-01T09:58:35.380Z,22.47
2019-05-01T10:01:05.764Z,22.47
2019-05-01T10:03:36.227Z,24.67
2019-05-01T10:06:07.648Z,22.90
2019-05-01T10:08:39.934Z,24.13
2019-05-01T10:11:11.408Z,23.40
2019-05-01T10:13:41.829Z,25.90
2019-05-01T10:16:18.828Z,24.93
2019-05-01T10:18:49.291Z,24.17
2019-05-01T10:21:22.305Z,24.90
2019-05-01T10:23:52.957Z,22.63
2019-05-01T10:26:25.799Z,23.37
2019-05-01T10:29:21.434Z,23.23
2019-05-01T10:32:21.517Z,23.43
2019-05-01T10:34:59.626Z,23.30
2019-05-01T10:37:33.533Z,23.90
2019-05-01T10:40:04.274Z,23.63
2019-05-01T10:42:34.727Z,23.33
2019-05-01T10:45:05.926Z,24.07
2019-05-01T10:47:36.540Z,22.93
2019-05-01T10:50:07.211Z,24.33
2019-05-01T10:52:37.483Z,23.10
2019-05-01T10:55:07.896Z,23.27
2019-05-01T10:57:40.256Z,22.67
2019-05-01T11:00:11.100Z,23.80
2019-05-01T11:02:41.566Z,23.03
2019-05-01T11:05:13.982Z,22.57
2019-05-01T11:07:44.327Z,22.13
2019-05-01T11:10:15.061Z,23.40
2019-05-01T11:12:45.516Z,23.00
2019-05-01T11:15:16.226Z,22.60
2019-05-01T11:17:46.647Z,22.50
2019-05-01T11:20:16.980Z,21.97
2019-05-01T11:22:48.397Z,21.73
2019-05-01T11:25:20.761Z,22.50
2019-05-01T11:27:51.165Z,23.10
2019-05-01T11:30:21.709Z,22.30
2019-05-01T11:33:11.087Z,23.07
2019-05-01T11:36:09.308Z,24.00
2019-05-01T11:38:40.221Z,24.27
2019-05-01T11:41:24.112Z,24.43
2019-05-01T11:43:54.575Z,24.67
2019-05-01T11:46:25.095Z,24.67
2019-05-01T11:48:55.473Z,23.83
2019-05-01T11:51:25.797Z,23.30
2019-05-01T11:53:56.151Z,23.23
2019-05-01T11:56:26.661Z,24.90
2019-05-01T11:58:57.071Z,23.30
2019-05-01T12:01:27.515Z,22.67
2019-05-01T12:03:57.930Z,23.30
2019-05-01T12:06:28.401Z,22.93
2019-05-01T12:08:58.822Z,22.43
2019-05-01T12:11:31.370Z,22.43
2019-05-01T12:14:01.761Z,22.07
2019-05-01T12:16:50.333Z,22.37
2019-05-01T12:19:21.033Z,21.37
2019-05-01T12:21:53.374Z,22.63
2019-05-01T12:24:23.430Z,22.00
2019-05-01T12:26:53.785Z,21.70
2019-05-01T12:29:24.185Z,21.83
2019-05-01T12:31:54.662Z,22.57
2019-05-01T12:34:25.036Z,22.03
2019-05-01T12:37:14.700Z,22.20
2019-05-01T12:39:45.088Z,21.60
2019-05-01T12:42:16.507Z,22.53
2019-05-01T12:44:46.817Z,21.57
2019-05-01T12:47:25.877Z,23.97
2019-05-01T12:49:56.809Z,24.40
2019-05-01T12:52:58.525Z,24.37
2019-05-01T12:55:49.394Z,23.63
2019-05-01T12:58:19.798Z,21.60
2019-05-01T13:00:52.542Z,22.50
2019-05-01T13:03:22.858Z,22.20
2019-05-01T13:05:53.292Z,23.40
2019-05-01T13:08:25.250Z,24.37
2019-05-01T13:10:55.229Z,23.23
2019-05-01T13:13:25.556Z,23.33
2019-05-01T13:15:55.916Z,23.03
2019-05-01T13:18:27.481Z,23.47
2019-05-01T13:20:57.735Z,23.50
2019-05-01T13:23:28.061Z,22.27
2019-05-01T13:26:08.334Z,21.77
2019-05-01T13:28:56.930Z,22.30
2019-05-01T13:31:46.728Z,21.30
2019-05-01T13:34:17.149Z,21.40
2019-05-01T13:36:47.469Z,20.73
2019-05-01T13:39:17.893Z,21.10
2019-05-01T13:41:48.258Z,22.60
2019-05-01T13:44:18.741Z,23.97
2019-05-01T13:46:49.101Z,23.83
2019-05-01T13:49:19.405Z,24.07
2019-05-01T13:51:50.252Z,24.63
2019-05-01T13:54:20.586Z,25.57
2019-05-01T13:56:50.998Z,24.10
2019-05-01T13:59:21.770Z,26.10
2019-05-01T14:01:52.062Z,25.13
2019-05-01T14:04:22.376Z,25.40
2019-05-01T14:06:53.134Z,26.60
2019-05-01T14:09:33.494Z,25.63
2019-05-01T14:12:04.012Z,26.80
2019-05-01T14:14:34.320Z,26.37
2019-05-01T14:17:05.115Z,26.07
2019-05-01T14:19:41.815Z,25.07
2019-05-01T14:22:34.187Z,25.57
2019-05-01T14:25:06.645Z,25.90
2019-05-01T14:27:38.158Z,26.07
2019-05-01T14:30:11.049Z,27.73
2019-05-01T14:32:41.671Z,26.97
2019-05-01T14:35:12.649Z,25.00
2019-05-01T14:37:43.020Z,25.53
2019-05-01T14:40:13.765Z,25.40
2019-05-01T14:42:44.138Z,26.37
2019-05-01T14:45:15.121Z,23.87
2019-05-01T14:47:45.561Z,26.47
2019-05-01T14:50:16.003Z,24.93
2019-05-01T14:52:46.321Z,25.70
2019-05-01T14:55:16.650Z,24.17
2019-05-01T14:57:46.959Z,23.73
2019-05-01T15:00:17.832Z,25.53
2019-05-01T15:02:48.242Z,23.87
2019-05-01T15:05:18.558Z,23.93
2019-05-01T15:07:48.894Z,23.67
2019-05-01T15:10:19.237Z,24.03
2019-05-01T15:12:51.888Z,23.97
2019-05-01T15:15:30.522Z,23.20
2019-05-01T15:18:06.292Z,24.17
2019-05-01T15:20:36.617Z,23.43
2019-05-01T15:23:07.118Z,24.27
2019-05-01T15:25:38.653Z,24.77
2019-05-01T15:28:08.914Z,23.00
2019-05-01T15:30:39.516Z,25.00
2019-05-01T15:33:09.852Z,24.57
2019-05-01T15:35:40.277Z,25.07
2019-05-01T15:38:10.611Z,24.87
2019-05-01T15:40:47.874Z,24.33
2019-05-01T15:43:30.196Z,24.30
2019-05-01T15:46:00.586Z,23.77
2019-05-01T15:48:30.925Z,24.73
2019-05-01T15:51:01.363Z,24.47
2019-05-01T15:53:31.694Z,24.70
2019-05-01T15:56:02.000Z,24.50
2019-05-01T15:58:32.379Z,26.10
2019-05-01T16:01:02.767Z,25.50
2019-05-01T16:03:33.105Z,24.63
2019-05-01T16:06:03.414Z,24.60
2019-05-01T16:08:33.752Z,24.47
2019-05-01T16:11:10.509Z,24.47
2019-05-01T16:13:40.863Z,24.57
2019-05-01T16:16:12.391Z,24.50
2019-05-01T16:18:42.717Z,24.50
2019-05-01T16:21:13.065Z,23.33
2019-05-01T16:23:43.408Z,23.33
2019-05-01T16:26:15.716Z,23.30
2019-05-01T16:28:45.729Z,24.33
2019-05-01T16:31:16.120Z,22.50
2019-05-01T16:33:46.500Z,24.10
2019-05-01T16:36:16.812Z,22.83
2019-05-01T16:39:06.418Z,22.77
2019-05-01T16:41:36.726Z,22.87
2019-05-01T16:44:07.398Z,20.97
2019-05-01T16:46:37.831Z,21.20
2019-05-01T16:49:08.185Z,21.40
2019-05-01T16:51:38.672Z,21.00
2019-05-01T16:54:09.620Z,20.83
2019-05-01T16:56:40.179Z,22.83
2019-05-01T16:59:10.520Z,21.03
2019-05-01T17:01:59.931Z,21.80
2019-05-01T17:04:53.682Z,21.10
2019-05-01T17:07:34.858Z,21.27
2019-05-01T17:10:12.142Z,21.30
2019-05-01T17:12:46.127Z,21.17
2019-05-01T17:15:19.801Z,23.43
2019-05-01T17:17:50.180Z,21.90
2019-05-01T17:20:23.997Z,24.37
2019-05-01T17:22:52.929Z,24.03
2019-05-01T17:25:23.316Z,22.40
2019-05-01T17:27:53.642Z,23.33
2019-05-01T17:30:46.668Z,22.60
2019-05-01T17:33:20.981Z,22.33
2019-05-01T17:35:49.066Z,22.97
2019-05-01T17:38:19.384Z,23.43
2019-05-01T17:40:52.162Z,23.43
2019-05-01T17:43:21.660Z,24.70
2019-05-01T17:45:52.572Z,25.17
2019-05-01T17:48:23.008Z,24.53
2019-05-01T17:50:55.005Z,24.73
2019-05-01T17:53:25.358Z,26.30
2019-05-01T17:55:55.766Z,24.47
2019-05-01T17:58:26.185Z,23.77
2019-05-01T18:01:20.189Z,24.70
2019-05-01T18:04:00.823Z,23.77
2019-05-01T18:06:36.473Z,25.13
2019-05-01T18:09:13.493Z,24.30
2019-05-01T18:11:40.791Z,25.13
2019-05-01T18:14:11.127Z,26.10
2019-05-01T18:16:41.527Z,24.40
2019-05-01T18:19:11.972Z,26.43
2019-05-01T18:21:46.729Z,25.20
2019-05-01T18:24:34.929Z,25.33
2019-05-01T18:27:19.090Z,25.20
2019-05-01T18:29:51.217Z,26.37
2019-05-01T18:32:47.431Z,25.33
2019-05-01T18:35:16.123Z,26.67
2019-05-01T18:38:21.042Z,26.53
2019-05-01T18:41:01.222Z,24.93
2019-05-01T18:43:32.603Z,25.87
2019-05-01T18:46:08.127Z,26.47
2019-05-01T18:48:38.146Z,25.83
2019-05-01T18:51:08.526Z,26.30
2019-05-01T18:53:40.461Z,25.83
2019-05-01T18:56:10.864Z,26.23
2019-05-01T18:58:41.262Z,25.43
2019-05-01T19:01:13.518Z,26.23
2019-05-01T19:03:44.218Z,25.93
2019-05-01T19:06:15.114Z,27.47
2019-05-01T19:08:46.927Z,27.07
2019-05-01T19:11:16.813Z,26.73
2019-05-01T19:13:47.361Z,26.73
2019-05-01T19:16:19.412Z,26.03
2019-05-01T19:18:50.184Z,25.97
2019-05-01T19:21:23.817Z,25.90
2019-05-01T19:23:54.365Z,26.63
2019-05-01T19:26:25.008Z,27.63
2019-05-01T19:28:55.314Z,29.07
2019-05-01T19:31:25.858Z,28.03
2019-05-01T19:33:56.244Z,27.07
2019-05-01T19:36:26.571Z,26.97
2019-05-01T19:38:57.437Z,28.13
2019-05-01T19:41:28.131Z,26.63
2019-05-01T19:43:58.449Z,28.70
2019-05-01T19:46:28.855Z,27.10
2019-05-01T19:48:59.335Z,28.03
2019-05-01T19:51:29.878Z,27.50
2019-05-01T19:54:00.459Z,27.73
2019-05-01T19:56:31.681Z,27.83
2019-05-01T19:59:04.137Z,27.67
2019-05-01T20:01:38.473Z,27.33
2019-05-01T20:04:08.552Z,28.13
2019-05-01T20:06:41.207Z,28.43
2019-05-01T20:09:13.306Z,27.97
2019-05-01T20:11:43.621Z,28.70
2019-05-01T20:14:15.231Z,28.93
2019-05-01T20:16:46.505Z,29.33
2019-05-01T20:19:18.039Z,28.40
2019-05-01T20:21:48.439Z,29.00
2019-05-01T20:24:20.049Z,28.20
2019-05-01T20:26:53.626Z,29.60
2019-05-01T20:29:27.502Z,29.50
2019-05-01T20:32:01.449Z,28.97
2019-05-01T20:34:33.274Z,27.43
2019-05-01T20:37:05.946Z,28.50
2019-05-01T20:39:39.388Z,29.90
2019-05-01T20:42:11.361Z,31.40
2019-05-01T20:44:43.714Z,30.50
2019-05-01T20:47:15.966Z,31.17
2019-05-01T20:49:48.606Z,30.87
2019-05-01T20:52:20.589Z,29.87
2019-05-01T20:54:55.098Z,30.40
2019-05-01T20:57:34.662Z,31.33
2019-05-01T21:00:11.457Z,31.17
2019-05-01T21:02:43.352Z,32.20
2019-05-01T21:05:25.133Z,33.50
2019-05-01T21:08:15.458Z,31.77
2019-05-01T21:10:54.977Z,32.53
2019-05-01T21:13:28.425Z,32.33
2019-05-01T21:16:01.923Z,31.37
2019-05-01T21:18:36.513Z,32.53
2019-05-01T21:21:09.936Z,32.30
2019-05-01T21:23:48.147Z,32.43
2019-05-01T21:26:23.438Z,34.47
2019-05-01T21:28:55.028Z,34.17
2019-05-01T21:31:27.278Z,33.03
2019-05-01T21:33:59.462Z,33.10
2019-05-01T21:36:33.757Z,34.00
2019-05-01T21:39:08.464Z,32.77
2019-05-01T21:41:43.253Z,33.70
2019-05-01T21:44:15.501Z,34.57
2019-05-01T21:46:47.766Z,34.13
2019-05-01T21:49:19.730Z,34.33
2019-05-01T21:51:53.498Z,33.83
2019-05-01T21:54:27.932Z,35.10
2019-05-01T21:56:58.257Z,35.20
2019-05-01T21:59:28.587Z,34.27
2019-05-01T22:01:59.008Z,34.50
2019-05-01T22:04:31.919Z,34.27
2019-05-01T22:07:01.379Z,35.33
2019-05-01T22:09:31.757Z,35.20
2019-05-01T22:12:02.080Z,35.00
2019-05-01T22:14:54.461Z,35.77
2019-05-01T22:17:49.865Z,36.67
2019-05-01T22:20:27.353Z,36.97
2019-05-01T22:23:02.119Z,36.50
2019-05-01T22:25:36.556Z,37.00
2019-05-01T22:28:18.831Z,36.00
2019-05-01T22:31:07.021Z,36.60
2019-05-01T22:33:38.354Z,37.10
2019-05-01T22:36:10.698Z,38.27
2019-05-01T22:38:41.130Z,36.33
2019-05-01T22:41:12.798Z,36.37
2019-05-01T22:43:45.930Z,37.43
2019-05-01T22:46:27.253Z,37.53
2019-05-01T22:48:57.620Z,38.77
2019-05-01T22:51:27.929Z,39.43
2019-05-01T22:53:58.354Z,39.07
2019-05-01T22:56:30.088Z,40.90
2019-05-01T22:59:00.452Z,40.10
2019-05-01T23:01:30.952Z,37.40
2019-05-01T23:04:12.031Z,39.67
2019-05-01T23:06:43.502Z,41.67
2019-05-01T23:09:15.885Z,41.53
2019-05-01T23:11:47.373Z,42.37
2019-05-01T23:14:18.153Z,40.63
2019-05-01T23:17:16.757Z,42.40
2019-05-01T23:19:47.141Z,41.80
2019-05-01T23:22:17.745Z,39.80
2019-05-01T23:24:48.069Z,41.07
2019-05-01T23:27:18.416Z,39.37
2019-05-01T23:29:48.777Z,41.73
2019-05-01T23:32:19.256Z,42.57
2019-05-01T23:34:49.994Z,41.67
2019-05-01T23:37:20.330Z,41.07
2019-05-01T23:39:50.764Z,40.63
2019-05-01T23:42:21.194Z,41.37
2019-05-01T23:44:51.493Z,41.70
2019-05-01T23:47:21.910Z,42.03
2019-05-01T23:49:52.735Z,42.27
2019-05-01T23:52:24.143Z,40.70
2019-05-01T23:54:54.469Z,44.07
2019-05-01T23:57:24.797Z,41.57
2019-05-01T23:59:55.094Z,42.10
